createdAt,value
2018-12-04T06:57:03.968Z,25.07
2018-12-04T06:59:32.565Z,25.59
2018-12-04T07:02:00.955Z,25.65
2018-12-04T07:04:29.517Z,26.03
2018-12-04T07:06:57.901Z,26.13
2018-12-04T07:09:26.146Z,26.36
2018-12-04T07:11:54.564Z,26.03
2018-12-04T07:14:23.096Z,26.20
2018-12-04T07:16:51.522Z,26.16
2018-12-04T07:19:19.892Z,26.39
2018-12-04T07:21:48.137Z,26.21
2018-12-04T07:24:16.558Z,26.44
2018-12-04T07:26:44.839Z,26.61
2018-12-04T07:29:13.100Z,26.56
2018-12-04T07:31:41.439Z,26.70
2018-12-04T07:34:09.952Z,26.74
2018-12-04T07:36:38.235Z,26.69
2018-12-04T07:39:08.050Z,26.70
2018-12-04T07:41:36.545Z,26.67
2018-12-04T07:44:04.817Z,26.87
2018-12-04T07:46:32.872Z,26.89
2018-12-04T07:49:01.123Z,26.82
2018-12-04T07:51:29.878Z,26.94
2018-12-04T07:53:57.722Z,26.83
2018-12-04T07:56:26.219Z,26.81
2018-12-04T07:58:54.723Z,26.63
2018-12-04T08:01:23.272Z,26.90
2018-12-04T08:03:51.581Z,26.79
2018-12-04T08:06:20.399Z,26.77
2018-12-04T08:08:48.895Z,26.89
2018-12-04T08:11:17.436Z,26.69
2018-12-04T08:13:45.672Z,26.92
2018-12-04T08:16:14.264Z,26.87
2018-12-04T08:18:42.689Z,27.15
2018-12-04T08:21:11.104Z,27.00
2018-12-04T08:23:39.788Z,26.94
2018-12-04T08:26:07.740Z,26.86
2018-12-04T08:28:36.428Z,27.02
2018-12-04T08:31:04.655Z,27.31
2018-12-04T08:33:33.284Z,27.45
2018-12-04T08:36:01.729Z,27.54
2018-12-04T08:38:30.301Z,27.57
2018-12-04T08:40:58.848Z,27.41
2018-12-04T08:43:27.477Z,27.32
2018-12-04T08:45:56.271Z,27.24
2018-12-04T08:48:25.142Z,27.29
2018-12-04T08:50:53.554Z,27.30
2018-12-04T08:53:22.243Z,27.11
2018-12-04T08:55:50.262Z,27.29
2018-12-04T08:58:18.569Z,27.21
2018-12-04T09:00:46.761Z,27.41
2018-12-04T09:03:15.288Z,27.43
2018-12-04T09:05:43.406Z,27.54
2018-12-04T09:08:11.654Z,27.43
2018-12-04T09:10:40.264Z,27.66
2018-12-04T09:13:08.762Z,27.67
2018-12-04T09:15:37.431Z,27.66
2018-12-04T09:18:05.665Z,27.78
2018-12-04T09:20:34.163Z,27.67
2018-12-04T09:23:03.225Z,27.29
2018-12-04T09:25:31.806Z,27.09
2018-12-04T09:28:00.559Z,27.30
2018-12-04T09:30:28.888Z,27.30
2018-12-04T09:32:57.739Z,27.25
2018-12-04T09:35:26.575Z,27.14
2018-12-04T09:37:55.470Z,27.04
2018-12-04T09:40:24.299Z,27.05
2018-12-04T09:42:53.480Z,26.99
2018-12-04T09:45:21.798Z,27.17
2018-12-04T09:47:49.725Z,27.10
2018-12-04T09:50:18.533Z,27.27
2018-12-04T09:52:46.939Z,26.84
2018-12-04T09:55:15.815Z,27.09
2018-12-04T09:57:44.138Z,26.88
2018-12-04T10:00:12.758Z,26.90
2018-12-04T10:02:41.722Z,26.68
2018-12-04T10:05:10.225Z,26.85
2018-12-04T10:07:38.759Z,26.72
2018-12-04T10:10:08.391Z,26.80
2018-12-04T10:12:37.214Z,26.85
2018-12-04T10:15:06.805Z,26.73
2018-12-04T10:17:35.217Z,26.53
2018-12-04T10:20:03.798Z,26.64
2018-12-04T10:22:32.255Z,26.67
2018-12-04T10:25:00.837Z,26.65
2018-12-04T10:27:29.260Z,26.62
2018-12-04T10:32:44.217Z,27.09
2018-12-04T10:35:13.122Z,26.92
2018-12-04T10:37:41.653Z,27.26
2018-12-04T10:40:10.100Z,27.16
2018-12-04T10:42:38.782Z,27.38
2018-12-04T10:45:07.592Z,27.59
2018-12-04T10:47:35.832Z,27.79
2018-12-04T10:50:05.272Z,27.54
2018-12-04T10:52:33.827Z,27.84
2018-12-04T10:55:02.273Z,28.23
2018-12-04T10:57:30.580Z,27.94
2018-12-04T16:11:48.523Z,27.01
2018-12-04T16:14:16.949Z,27.03
2018-12-04T16:16:44.861Z,26.93
2018-12-04T16:19:13.175Z,27.00
2018-12-04T16:21:41.868Z,27.27
2018-12-04T16:24:10.141Z,27.31
2018-12-04T16:26:39.086Z,27.21
2018-12-04T16:29:07.741Z,26.95
2018-12-04T16:31:35.964Z,26.75
2018-12-04T16:34:04.448Z,26.99
2018-12-04T16:36:32.252Z,28.10
2018-12-04T16:39:00.768Z,27.94
2018-12-04T16:41:29.083Z,28.56
2018-12-04T16:43:57.576Z,28.49
2018-12-04T16:46:26.040Z,27.99
2018-12-04T16:48:54.662Z,27.25
2018-12-04T16:51:22.915Z,27.24
2018-12-04T16:53:51.163Z,27.19
2018-12-04T16:56:19.334Z,27.12
2018-12-04T16:58:47.854Z,26.74
2018-12-04T17:01:16.351Z,26.99
2018-12-04T17:03:55.406Z,27.21
2018-12-04T17:06:23.651Z,27.69
2018-12-04T17:08:51.997Z,27.46
2018-12-04T17:11:20.986Z,27.58
2018-12-04T17:13:49.647Z,27.87
2018-12-04T17:16:17.947Z,27.48
2018-12-04T17:21:34.544Z,27.15
2018-12-04T17:24:02.741Z,26.98
2018-12-04T17:26:31.037Z,27.20
2018-12-04T17:28:59.465Z,27.00
2018-12-04T17:31:27.737Z,27.07
2018-12-04T17:33:56.275Z,27.42
2018-12-04T17:36:24.811Z,27.59
2018-12-04T17:38:53.507Z,27.60
2018-12-04T17:41:22.271Z,27.70
2018-12-04T17:43:50.692Z,27.23
2018-12-04T17:46:18.981Z,27.24
2018-12-04T17:48:47.759Z,27.51
2018-12-04T17:51:16.540Z,27.32
2018-12-04T17:53:45.150Z,27.51
2018-12-04T17:56:13.877Z,27.36
2018-12-04T17:58:42.194Z,27.24
2018-12-04T18:01:10.626Z,27.77
2018-12-04T18:03:38.782Z,27.41
2018-12-04T18:06:07.879Z,27.35
2018-12-04T18:08:35.732Z,27.25
2018-12-04T18:11:04.510Z,27.66
2018-12-04T18:13:32.744Z,27.53
2018-12-04T18:16:01.453Z,27.39
2018-12-04T18:18:29.772Z,27.23
2018-12-04T18:20:58.516Z,27.40
2018-12-04T18:23:27.008Z,27.00
2018-12-04T18:25:55.264Z,27.21
2018-12-04T18:28:23.800Z,27.01
2018-12-04T18:30:52.267Z,26.94
2018-12-04T18:33:20.849Z,26.94
2018-12-04T18:35:49.421Z,26.86
2018-12-04T18:38:17.830Z,27.20
2018-12-04T18:40:46.467Z,27.11
2018-12-04T18:43:14.916Z,26.83
2018-12-04T18:45:43.847Z,26.83
2018-12-04T18:48:12.390Z,26.99
2018-12-04T18:50:41.525Z,27.03
2018-12-04T18:53:09.737Z,27.21
2018-12-04T18:55:38.265Z,27.03
2018-12-04T18:58:06.701Z,27.27
2018-12-04T19:00:35.492Z,27.35
2018-12-04T19:03:04.263Z,27.35
2018-12-04T19:05:32.861Z,27.46
2018-12-04T19:08:01.574Z,27.47
2018-12-04T19:10:30.803Z,27.26
2018-12-04T19:12:59.384Z,27.47
2018-12-04T19:15:27.899Z,27.27
2018-12-04T19:17:56.597Z,27.03
2018-12-04T19:20:25.185Z,26.64
2018-12-04T19:22:54.306Z,26.63
2018-12-04T19:25:22.583Z,26.75
2018-12-04T19:27:51.227Z,26.57
2018-12-04T19:30:19.685Z,26.66
2018-12-04T19:32:47.826Z,26.71
2018-12-04T19:35:16.221Z,26.69
2018-12-04T19:37:44.694Z,26.81
2018-12-04T19:40:13.645Z,26.83
2018-12-04T19:42:44.261Z,26.67
2018-12-04T19:45:12.997Z,26.66
2018-12-04T19:47:41.666Z,27.00
2018-12-04T19:50:10.379Z,27.47
2018-12-04T19:52:38.740Z,27.60
2018-12-04T19:55:07.299Z,27.39
2018-12-04T19:57:35.990Z,27.63
2018-12-04T20:00:04.966Z,27.24
2018-12-04T20:02:33.564Z,27.15
2018-12-04T20:05:02.143Z,27.27
2018-12-04T20:07:30.581Z,27.09
2018-12-04T20:09:58.893Z,27.35
2018-12-04T20:12:27.431Z,27.47
2018-12-04T20:14:55.660Z,27.37
2018-12-04T20:17:24.117Z,27.17
2018-12-04T20:19:52.719Z,27.03
2018-12-04T20:22:21.294Z,27.22
2018-12-04T20:24:49.412Z,27.27
2018-12-04T20:27:17.880Z,27.59
2018-12-04T20:29:46.416Z,27.54
2018-12-04T20:32:15.286Z,27.50
2018-12-04T20:34:44.141Z,27.58
2018-12-04T20:37:12.814Z,27.63
2018-12-04T20:39:41.777Z,27.54
2018-12-04T20:42:10.565Z,27.42
2018-12-04T20:44:38.835Z,27.45
2018-12-04T20:47:06.831Z,27.30
2018-12-04T20:49:35.345Z,27.27
2018-12-04T20:52:03.770Z,27.17
2018-12-04T20:54:32.268Z,27.32
2018-12-04T20:57:02.162Z,27.19
2018-12-04T20:59:29.574Z,27.27
2018-12-04T21:01:58.403Z,27.26
2018-12-04T21:04:26.457Z,28.02
2018-12-04T21:06:54.818Z,27.49
2018-12-04T21:09:23.284Z,27.92
2018-12-04T21:11:51.857Z,27.69
2018-12-04T21:14:20.439Z,27.52
2018-12-04T21:16:48.745Z,28.00
2018-12-04T21:19:17.433Z,27.55
2018-12-04T21:21:45.747Z,27.73
2018-12-04T21:24:14.032Z,27.71
2018-12-04T21:26:42.424Z,27.71
2018-12-04T21:29:16.292Z,27.30
2018-12-04T21:31:50.601Z,27.50
2018-12-04T21:34:25.655Z,27.72
2018-12-04T21:37:57.581Z,27.48
2018-12-04T21:40:31.411Z,27.52
